Time;durP1;ratioP1;P1;durP2;ratioP2;P2;SDS_P1;SDS_P2;PMS_P1;PMS_P2;Temp;Humidity;BMP_temperature;BMP_pressure;BME280_temperature;BME280_humidity;BME280_pressure;Samples;Min_cycle;Max_cycle;Signal;HPM_P1;HPM_P2
2021/10/23 06:29:35;;;;;;;5.00;2.40;;;;;;;5.72;100.00;100043.63;5111046;27;20388;-84
2021/10/23 06:32:09;;;;;;;8.38;2.88;;;;;;;5.79;100.00;100029.47;5111606;28;20060;-84
2021/10/23 06:34:40;;;;;;;8.63;2.50;;;;;;;5.83;100.00;100028.22;5097738;28;20048;-82
2021/10/23 06:37:08;;;;;;;8.50;2.83;;;;;;;6.01;100.00;100050.09;5084868;28;20139;-83
2021/10/23 06:39:35;;;;;;;7.15;2.45;;;;;;;6.15;100.00;100054.28;5069278;28;20057;-83
2021/10/23 06:42:01;;;;;;;9.80;2.80;;;;;;;6.09;100.00;100054.81;5089228;28;20144;-83
2021/10/23 06:44:28;;;;;;;5.45;2.28;;;;;;;6.09;100.00;100051.28;5089435;28;20067;-83
2021/10/23 06:46:57;;;;;;;5.40;2.47;;;;;;;6.03;100.00;100055.34;5088898;28;20085;-83
2021/10/23 06:49:24;;;;;;;5.47;2.13;;;;;;;5.94;100.00;100065.06;5089119;28;20514;-82
2021/10/23 06:51:50;;;;;;;5.45;2.10;;;;;;;5.86;100.00;100062.19;5088142;28;20434;-83
2021/10/23 06:54:18;;;;;;;5.47;2.45;;;;;;;5.91;100.00;100059.94;5070168;28;20415;-83
2021/10/23 06:56:45;;;;;;;8.00;2.60;;;;;;;5.92;100.00;100064.34;5075381;28;20044;-83
2021/10/23 06:59:12;;;;;;;3.63;2.38;;;;;;;5.84;100.00;100046.13;5088706;28;20407;-83
2021/10/23 07:01:39;;;;;;;8.02;2.42;;;;;;;5.96;100.00;100046.03;5088651;28;20056;-83
2021/10/23 07:04:19;;;;;;;7.25;2.67;;;;;;;6.11;100.00;100060.09;5088768;28;20066;-83
2021/10/23 07:06:47;;;;;;;;;;;;;;;6.20;100.00;100060.16;5089024;28;20056;-83
2021/10/23 07:09:13;;;;;;;9.35;2.60;;;;;;;6.27;100.00;100065.00;5087995;28;20403;-83
2021/10/23 07:18:36;;;;;;;4.35;2.80;;;;;;;6.26;100.00;100082.19;5059881;28;20481;-84
2021/10/23 07:21:08;;;;;;;5.33;2.47;;;;;;;6.31;100.00;100056.50;5088381;28;20048;-83
2021/10/23 07:23:36;;;;;;;8.85;2.65;;;;;;;6.38;100.00;100067.59;5088336;28;20301;-84
2021/10/23 07:26:06;;;;;;;4.65;2.70;;;;;;;6.55;100.00;100090.44;5089119;28;20561;-84
2021/10/23 07:28:38;;;;;;;5.65;2.63;;;;;;;6.52;100.00;100077.19;5088547;28;20052;-84
2021/10/23 07:31:05;;;;;;;12.15;3.03;;;;;;;6.76;100.00;100093.06;5088133;28;20052;-84
2021/10/23 07:33:32;;;;;;;6.75;4.32;;;;;;;6.64;100.00;100077.94;5088523;28;20240;-84
2021/10/23 07:35:59;;;;;;;10.32;3.53;;;;;;;6.73;100.00;100098.75;5087751;28;20083;-84
2021/10/23 07:38:28;;;;;;;6.60;2.75;;;;;;;6.81;100.00;100103.47;5087599;28;20388;-83
2021/10/23 07:40:55;;;;;;;10.00;2.90;;;;;;;7.02;100.00;100117.72;5073974;28;20052;-84
2021/10/23 07:43:22;;;;;;;8.52;2.78;;;;;;;7.03;100.00;100113.16;5073973;28;20495;-84
2021/10/23 07:45:51;;;;;;;6.40;2.85;;;;;;;7.13;100.00;100115.91;5074255;28;20049;-84
2021/10/23 07:48:18;;;;;;;7.22;2.47;;;;;;;7.26;100.00;100130.88;5074028;28;20064;-84
2021/10/23 07:54:06;;;;;;;7.22;3.50;;;;;;;7.29;100.00;100124.34;5075003;28;20166;-84
2021/10/23 07:56:40;;;;;;;5.78;2.60;;;;;;;7.42;99.93;100132.16;5075231;28;20049;-84
2021/10/23 07:59:09;;;;;;;6.28;2.45;;;;;;;7.46;99.71;100127.34;5068097;28;20045;-84
2021/10/23 08:01:43;;;;;;;11.32;2.45;;;;;;;7.51;99.20;100125.06;5068765;28;20045;-84
2021/10/23 08:04:13;;;;;;;10.05;2.40;;;;;;;7.47;98.67;100142.56;5074966;28;20044;-84
2021/10/23 08:06:40;;;;;;;5.75;2.47;;;;;;;7.53;98.69;100136.63;5075559;28;20381;-84
2021/10/23 08:09:12;;;;;;;6.05;2.63;;;;;;;7.74;98.84;100150.00;5075178;28;20399;-84
2021/10/23 08:11:40;;;;;;;11.25;2.65;;;;;;;7.84;97.68;100147.28;5075650;28;20045;-84
2021/10/23 08:14:10;;;;;;;3.35;2.28;;;;;;;7.89;97.62;100129.63;5074214;28;20060;-84
2021/10/23 08:16:41;;;;;;;7.30;3.03;;;;;;;8.20;97.93;100148.38;5071589;28;20479;-84
2021/10/23 08:19:10;;;;;;;4.82;2.65;;;;;;;8.31;96.40;100141.97;5073362;28;20075;-85
2021/10/23 08:21:38;;;;;;;10.43;3.00;;;;;;;8.24;95.05;100119.16;5074777;28;20053;-85
2021/10/23 08:24:05;;;;;;;17.20;4.13;;;;;;;8.68;94.91;100146.56;5075462;28;20052;-86
2021/10/23 08:27:08;;;;;;;7.15;2.40;;;;;;;8.86;93.66;100141.22;5074633;28;20062;-84
2021/10/23 08:29:35;;;;;;;11.30;3.00;;;;;;;8.79;93.47;100140.09;5074452;28;20150;-84
2021/10/23 08:32:02;;;;;;;9.57;2.80;;;;;;;8.83;92.75;100133.38;5074583;28;20102;-82
2021/10/23 08:34:33;;;;;;;8.13;3.47;;;;;;;8.94;92.09;100132.31;5072595;28;20056;-82
2021/10/23 08:37:00;;;;;;;6.95;3.20;;;;;;;8.96;91.62;100146.59;5073630;28;20044;-82
2021/10/23 08:39:28;;;;;;;9.52;2.45;;;;;;;8.96;90.83;100136.59;5073591;28;20102;-82
2021/10/23 08:41:57;;;;;;;4.80;2.35;;;;;;;9.04;nan;100147.53;5073821;28;20044;-82
2021/10/23 08:44:25;;;;;;;8.75;3.28;;;;;;;9.07;90.01;100140.13;5073425;28;20056;-82
2021/10/23 08:46:55;;;;;;;15.80;4.20;;;;;;;9.16;90.23;100144.63;5072547;28;20491;-82
2021/10/23 08:49:25;;;;;;;8.57;2.58;;;;;;;9.20;90.06;100152.31;5070925;28;20487;-82
2021/10/23 08:51:56;;;;;;;4.65;2.30;;;;;;;9.27;90.20;100157.13;5071887;28;20052;-82
2021/10/23 08:54:23;;;;;;;11.20;3.53;;;;;;;9.40;89.96;100163.03;5073118;28;20484;-82
2021/10/23 08:56:50;;;;;;;14.57;4.45;;;;;;;9.39;89.40;100143.22;5060615;28;20486;-82
2021/10/23 08:59:18;;;;;;;5.93;2.65;;;;;;;9.49;89.16;100164.00;5072935;28;20051;-82
2021/10/23 09:01:45;;;;;;;10.70;2.85;;;;;;;9.43;89.36;100167.31;5072988;28;20129;-82
2021/10/23 09:04:12;;;;;;;11.60;3.13;;;;;;;9.34;89.30;100150.94;5072523;28;20055;-83
2021/10/23 09:06:41;;;;;;;6.28;2.70;;;;;;;9.49;88.76;100156.69;5072345;28;20049;-82
2021/10/23 09:09:10;;;;;;;10.07;2.60;;;;;;;9.52;89.24;100169.97;5061864;28;20056;-81
2021/10/23 09:11:39;;;;;;;7.25;2.42;;;;;;;9.55;89.24;100158.78;5052669;28;20307;-82
2021/10/23 09:14:29;;;;;;;7.57;2.83;;;;;;;9.48;89.44;100160.41;5067575;28;20407;-82
2021/10/23 09:17:01;;;;;;;7.03;2.53;;;;;;;9.52;89.02;100167.25;5072883;28;20048;-82
2021/10/23 09:19:36;;;;;;;14.98;2.60;;;;;;;9.47;89.00;100157.84;5072444;28;20055;-82
2021/10/23 09:22:05;;;;;;;7.57;2.65;;;;;;;9.47;89.46;100150.56;5072448;28;20075;-82
2021/10/23 09:24:34;;;;;;;9.82;2.60;;;;;;;9.54;89.00;100167.97;5069187;28;20048;-82
2021/10/23 09:27:01;;;;;;;6.10;2.40;;;;;;;9.59;88.13;100169.34;5071287;28;20048;-82
2021/10/23 09:29:36;;;;;;;11.23;2.80;;;;;;;9.36;87.88;100156.22;5072311;28;20303;-82
2021/10/23 09:32:10;;;;;;;7.80;2.55;;;;;;;9.31;88.83;100153.13;5074999;28;20438;-83
2021/10/23 09:34:37;;;;;;;3.33;2.00;;;;;;;9.52;87.13;100167.25;5074792;28;20056;-82
2021/10/23 09:37:04;;;;;;;7.78;3.25;;;;;;;9.47;87.58;100160.56;5071711;28;20049;-82
2021/10/23 09:39:33;;;;;;;5.50;2.75;;;;;;;9.58;87.59;100157.63;5072862;28;20048;-82
2021/10/23 09:42:15;;;;;;;8.43;3.08;;;;;;;9.60;86.38;100163.75;5071594;28;20098;-82
2021/10/23 09:45:04;;;;;;;7.68;2.83;;;;;;;9.61;86.67;100170.06;5070182;28;20123;-82
2021/10/23 09:47:42;;;;;;;2.75;2.00;;;;;;;9.43;85.39;100157.31;5071989;28;20044;-83
2021/10/23 09:50:17;;;;;;;5.47;2.40;;;;;;;9.53;84.72;100168.13;5071872;28;20514;-82
2021/10/23 09:53:07;;;;;;;6.45;2.58;;;;;;;9.77;84.05;100172.06;5071270;28;20098;-82
2021/10/23 09:55:55;;;;;;;4.07;1.77;;;;;;;9.55;82.53;100158.78;5069991;28;20076;-82
2021/10/23 09:58:24;;;;;;;11.20;2.00;;;;;;;9.74;81.79;100181.41;5070164;28;20048;-82
2021/10/23 10:00:55;;;;;;;5.10;1.73;;;;;;;9.89;80.10;100174.41;5070884;28;20464;-82
2021/10/23 10:03:29;;;;;;;7.13;2.30;;;;;;;9.96;79.19;100179.22;5072273;28;20057;-85
2021/10/23 10:05:56;;;;;;;3.97;1.70;;;;;;;10.05;78.24;100178.28;5071162;28;20048;-82
2021/10/23 10:08:28;;;;;;;5.72;1.83;;;;;;;10.12;77.87;100173.03;5071571;28;20047;-82
2021/10/23 10:10:57;;;;;;;3.58;1.60;;;;;;;10.22;76.38;100176.53;5070399;28;20074;-82
2021/10/23 10:13:25;;;;;;;5.82;2.03;;;;;;;10.22;76.31;100174.69;5050185;28;20412;-82
2021/10/23 10:15:55;;;;;;;7.20;1.73;;;;;;;9.98;77.32;100177.19;5071224;28;20052;-82
2021/10/23 10:18:23;;;;;;;;;;;;;;;9.81;77.79;100187.06;5072428;28;20063;-82
2021/10/23 10:20:52;;;;;;;3.95;1.90;;;;;;;10.01;78.95;100185.88;5071197;28;19973;-82
2021/10/23 10:23:20;;;;;;;6.70;2.42;;;;;;;9.98;80.87;100163.59;5071570;28;20064;-82
2021/10/23 10:26:25;;;;;;;4.28;2.30;;;;;;;10.07;81.28;100176.22;5071328;28;20052;-83
2021/10/23 10:29:17;;;;;;;9.68;2.38;;;;;;;10.13;80.47;100186.47;5051609;28;20079;-82
2021/10/23 10:31:47;;;;;;;14.63;2.30;;;;;;;10.03;81.63;100166.72;5066694;28;20416;-82
2021/10/23 10:34:29;;;;;;;;;;;;;;;10.27;81.45;100188.63;5072218;28;20056;-82
2021/10/23 10:40:43;;;;;;;3.65;2.10;;;;;;;10.35;79.50;100162.56;4989347;28;20571;-82
2021/10/23 10:43:10;;;;;;;8.02;2.13;;;;;;;10.40;77.32;100168.38;5053053;28;20044;-82
2021/10/23 10:45:52;;;;;;;5.45;2.03;;;;;;;10.37;78.71;100182.28;5069390;28;20040;-82
2021/10/23 10:48:40;;;;;;;5.65;2.00;;;;;;;10.30;77.15;100181.16;5070633;28;20079;-82
2021/10/23 10:51:24;;;;;;;7.88;2.25;;;;;;;10.35;74.84;100179.72;5068142;28;20407;-82
2021/10/23 10:54:07;;;;;;;3.17;1.70;;;;;;;10.16;75.58;100163.56;5071462;28;20064;-82
2021/10/23 10:56:49;;;;;;;4.93;3.03;;;;;;;10.35;76.17;100171.56;5070442;28;20049;-83
2021/10/23 10:59:54;;;;;;;6.88;2.22;;;;;;;10.23;73.66;100164.66;5070657;28;20106;-82
2021/10/23 11:02:38;;;;;;;11.82;1.98;;;;;;;10.26;76.66;100165.19;5009518;28;20275;-82
2021/10/23 11:05:30;;;;;;;5.95;1.67;;;;;;;10.27;76.23;100147.88;5063326;28;20454;-82
2021/10/23 11:08:20;;;;;;;8.25;2.40;;;;;;;10.43;75.98;100144.47;5066793;28;20054;-82
2021/10/23 11:10:58;;;;;;;;;;;;;;;10.56;74.37;100160.31;5068926;28;20052;-82
2021/10/23 11:13:26;;;;;;;4.40;1.92;;;;;;;10.64;74.74;100145.91;5072317;28;20018;-83
2021/10/23 11:16:21;;;;;;;5.68;1.77;;;;;;;10.90;74.58;100140.47;5070702;28;20048;-82
2021/10/23 11:19:03;;;;;;;6.80;1.70;;;;;;;11.19;72.58;100132.91;5076127;28;20049;-82
2021/10/23 11:21:35;;;;;;;6.18;2.80;;;;;;;11.22;72.36;100140.75;5073922;28;20106;-82
2021/10/23 11:24:02;;;;;;;4.22;1.73;;;;;;;11.04;67.77;100151.75;5072020;28;20080;-82
2021/10/23 11:26:32;;;;;;;5.35;1.80;;;;;;;10.87;69.45;100150.78;5054147;28;20053;-82
2021/10/23 11:29:16;;;;;;;;;;;;;;;10.89;72.76;100155.06;5056162;28;20538;-83
2021/10/23 11:31:46;;;;;;;3.65;1.60;;;;;;;10.64;73.63;100151.34;5067898;28;19966;-82
2021/10/23 11:34:19;;;;;;;6.25;2.20;;;;;;;10.62;73.01;100161.56;5075899;28;20083;-88
2021/10/23 11:36:59;;;;;;;3.63;1.73;;;;;;;10.60;72.24;100152.72;5075334;28;20072;-82
2021/10/23 11:39:27;;;;;;;4.18;1.30;;;;;;;10.56;70.79;100148.59;5073733;28;20045;-83
2021/10/23 11:42:15;;;;;;;8.25;1.40;;;;;;;10.73;70.36;100152.25;5075776;28;20059;-83
2021/10/23 11:44:42;;;;;;;5.10;1.58;;;;;;;10.67;70.34;100142.03;5073613;28;20044;-84
2021/10/23 11:47:11;;;;;;;9.75;1.58;;;;;;;10.66;69.42;100135.75;5074681;28;20496;-84
2021/10/23 11:49:37;;;;;;;10.13;2.85;;;;;;;10.40;70.92;100131.19;5074024;28;20144;-84
2021/10/23 11:52:07;;;;;;;4.30;1.70;;;;;;;10.56;69.38;100143.16;5074107;28;20055;-84
2021/10/23 11:54:44;;;;;;;3.13;1.27;;;;;;;10.52;70.64;100158.09;5072888;28;20106;-84
2021/10/23 11:57:12;;;;;;;5.20;1.10;;;;;;;10.66;68.36;100162.06;5073545;28;20530;-85
2021/10/23 11:59:55;;;;;;;4.13;1.55;;;;;;;10.77;68.26;100162.66;5074050;28;20043;-84
2021/10/23 12:02:22;;;;;;;4.68;1.40;;;;;;;10.72;67.59;100156.88;5073232;28;20056;-85
2021/10/23 12:04:49;;;;;;;8.43;1.92;;;;;;;10.97;67.58;100167.84;5073767;28;20052;-84
2021/10/23 12:07:35;;;;;;;2.92;1.13;;;;;;;11.13;68.35;100154.31;5074021;28;20049;-85
2021/10/23 12:10:11;;;;;;;3.95;1.48;;;;;;;11.15;67.88;100156.88;5073750;28;20048;-85
2021/10/23 12:12:44;;;;;;;6.35;1.75;;;;;;;11.42;67.68;100161.22;5072538;28;20050;-84
2021/10/23 12:15:33;;;;;;;;;;;;;;;;;;;;;
2021/10/23 12:18:07;;;;;;;5.10;2.00;;;;;;;11.44;66.57;100161.91;5074262;28;20045;-83
2021/10/23 12:20:35;;;;;;;9.55;2.45;;;;;;;11.51;67.03;100137.59;5074111;28;20059;-84
2021/10/23 12:23:06;;;;;;;4.07;1.85;;;;;;;11.72;66.45;100150.72;5073893;28;20048;-84
2021/10/23 12:25:39;;;;;;;6.25;2.08;;;;;;;11.67;65.04;100139.50;5072205;28;20052;-83
2021/10/23 12:28:06;;;;;;;5.05;2.38;;;;;;;11.79;64.77;100142.75;5073753;28;20113;-85
2021/10/23 12:30:36;;;;;;;4.95;1.50;;;;;;;11.70;65.02;100139.16;5073594;28;20076;-85
2021/10/23 12:33:03;;;;;;;7.10;1.58;;;;;;;11.70;63.93;100155.50;5070522;28;20049;-85
2021/10/23 12:35:30;;;;;;;4.10;1.30;;;;;;;11.57;63.22;100158.69;5073014;28;20063;-84
2021/10/23 12:38:00;;;;;;;4.53;1.55;;;;;;;11.49;65.92;100151.38;5073204;28;20076;-88
2021/10/23 12:40:32;;;;;;;9.18;5.10;;;;;;;11.33;66.22;100146.72;5073054;28;20048;-87
2021/10/23 12:43:03;;;;;;;4.05;1.58;;;;;;;11.45;66.25;100160.88;5073582;28;20063;-85
2021/10/23 12:45:33;;;;;;;5.40;1.55;;;;;;;11.38;67.88;100140.81;5072999;28;20052;-84
2021/10/23 12:48:03;;;;;;;4.63;1.50;;;;;;;11.45;65.07;100151.88;5071363;28;20048;-84
2021/10/23 12:50:30;;;;;;;;;;;;;;;11.25;66.83;100151.31;5073711;28;20119;-84
2021/10/23 12:52:57;;;;;;;3.03;1.73;;;;;;;11.19;65.16;100147.38;5072498;28;20394;-84
2021/10/23 12:55:25;;;;;;;1.25;1.02;;;;;;;11.11;65.38;100131.00;5072143;28;20110;-84
2021/10/23 12:57:54;;;;;;;4.68;1.58;;;;;;;11.24;64.15;100150.44;5073198;28;20077;-85
2021/10/23 13:00:21;;;;;;;7.10;1.75;;;;;;;11.41;64.69;100134.16;5072598;28;20052;-84
2021/10/23 13:02:49;;;;;;;2.42;0.98;;;;;;;11.95;61.92;100144.66;5072522;28;20048;-81
2021/10/23 13:05:15;;;;;;;2.75;0.98;;;;;;;11.93;60.25;100138.53;5071906;28;20059;-81
2021/10/23 13:07:42;;;;;;;3.05;1.23;;;;;;;12.02;60.54;100142.94;5072666;28;20316;-81
2021/10/23 13:10:12;;;;;;;5.70;1.20;;;;;;;12.29;60.01;100141.72;5072102;28;20060;-81
2021/10/23 13:12:40;;;;;;;7.30;2.53;;;;;;;12.18;62.57;100134.75;5072595;28;20170;-81
2021/10/23 13:15:10;;;;;;;2.95;1.02;;;;;;;11.87;62.85;100129.97;5071710;28;20457;-81
2021/10/23 13:17:37;;;;;;;;;;;;;;;11.91;61.99;100144.09;5073062;28;20048;-81
2021/10/23 13:20:05;;;;;;;2.88;1.25;;;;;;;11.80;59.39;100138.97;5064697;28;19920;-81
2021/10/23 13:22:32;;;;;;;3.10;1.20;;;;;;;11.61;58.95;100132.00;5062969;28;20544;-82
2021/10/23 13:25:00;;;;;;;2.95;0.50;;;;;;;11.44;58.19;100148.31;5071962;28;20071;-81
2021/10/23 13:27:29;;;;;;;2.13;1.05;;;;;;;11.45;57.58;100158.16;5071988;28;20463;-82
2021/10/23 13:29:59;;;;;;;3.95;0.70;;;;;;;11.42;56.88;100149.47;5072980;28;20040;-82
2021/10/23 13:32:27;;;;;;;5.18;1.17;;;;;;;11.44;56.75;100140.13;5071743;28;20098;-82
2021/10/23 13:34:55;;;;;;;3.72;1.27;;;;;;;11.73;57.97;100148.84;5071324;28;20052;-82
2021/10/23 13:37:24;;;;;;;2.22;0.90;;;;;;;11.87;58.10;100156.34;5070790;28;20070;-82
2021/10/23 13:39:51;;;;;;;3.22;1.20;;;;;;;12.10;56.51;100158.44;5070714;28;20048;-82
2021/10/23 13:42:19;;;;;;;2.97;1.38;;;;;;;11.93;57.86;100142.09;5071786;28;20052;-82
2021/10/23 13:44:49;;;;;;;4.85;1.08;;;;;;;11.96;59.07;100152.66;5071522;28;20052;-82
2021/10/23 13:47:16;;;;;;;;;;;;;;;11.92;60.39;100164.88;5072360;28;20097;-82
2021/10/23 13:49:44;;;;;;;3.38;1.50;;;;;;;11.84;61.27;100149.38;5071761;28;20372;-82
2021/10/23 13:52:11;;;;;;;2.67;1.30;;;;;;;11.74;61.44;100167.75;5071425;28;20040;-82
2021/10/23 13:54:38;;;;;;;5.65;1.35;;;;;;;11.84;60.69;100165.72;5069003;28;20048;-82
2021/10/23 13:57:05;;;;;;;3.83;0.95;;;;;;;11.82;61.04;100161.47;5071374;28;20089;-81
2021/10/23 13:59:31;;;;;;;2.50;1.20;;;;;;;11.69;61.29;100170.97;5070985;28;20064;-82
2021/10/23 14:02:00;;;;;;;1.30;1.10;;;;;;;11.63;62.37;100168.91;5058646;28;20098;-82
2021/10/23 14:04:26;;;;;;;7.80;1.27;;;;;;;11.57;62.22;100169.59;5067429;28;20041;-82
2021/10/23 14:06:55;;;;;;;3.50;1.20;;;;;;;11.61;62.24;100161.97;5071301;28;20056;-82
2021/10/23 14:09:21;;;;;;;6.32;1.13;;;;;;;11.51;64.54;100160.22;5069700;28;20048;-82
2021/10/23 14:11:48;;;;;;;4.18;1.63;;;;;;;11.68;63.30;100165.69;5071784;28;20059;-82
2021/10/23 14:14:15;;;;;;;8.82;2.10;;;;;;;11.73;63.46;100170.63;5070002;28;20143;-82
2021/10/23 14:16:42;;;;;;;4.07;1.50;;;;;;;11.61;63.63;100170.97;5070983;28;20102;-82
2021/10/23 14:19:09;;;;;;;4.65;1.55;;;;;;;11.49;61.97;100169.59;5071375;28;20044;-82
2021/10/23 14:21:36;;;;;;;2.60;1.33;;;;;;;11.33;62.82;100151.31;5071510;28;20049;-82
2021/10/23 14:24:04;;;;;;;4.78;1.35;;;;;;;11.57;62.51;100169.59;5066124;28;20045;-82
2021/10/23 14:26:34;;;;;;;6.35;1.50;;;;;;;11.55;62.57;100160.75;5067578;28;20071;-82
2021/10/23 14:29:03;;;;;;;5.57;1.95;;;;;;;11.47;63.36;100169.75;5071936;28;20048;-82
2021/10/23 14:32:01;;;;;;;7.32;3.13;;;;;;;11.60;61.85;100165.69;5072505;28;20106;-82
2021/10/23 14:34:45;;;;;;;3.88;1.45;;;;;;;11.35;61.53;100157.47;5069986;28;20098;-82
2021/10/23 14:37:13;;;;;;;2.92;1.00;;;;;;;11.48;61.12;100170.59;5059275;28;20054;-81
2021/10/23 14:39:41;;;;;;;3.65;1.10;;;;;;;11.46;61.79;100181.66;5071135;28;20083;-81
2021/10/23 14:42:09;;;;;;;2.35;0.95;;;;;;;11.43;58.51;100175.69;5069668;28;20044;-81
2021/10/23 14:44:36;;;;;;;4.18;1.17;;;;;;;11.34;61.37;100169.38;5071111;28;20049;-81
2021/10/23 14:47:03;;;;;;;2.10;1.00;;;;;;;11.44;58.87;100161.91;5070893;28;20396;-81
2021/10/23 14:49:30;;;;;;;3.42;0.90;;;;;;;11.40;58.89;100179.59;5071845;28;20427;-81
2021/10/23 14:52:00;;;;;;;2.80;0.80;;;;;;;11.52;58.63;100175.53;5074915;28;20063;-81
2021/10/23 14:54:35;;;;;;;6.45;2.28;;;;;;;11.39;57.53;100167.00;5075095;28;20106;-81
2021/10/23 14:57:04;;;;;;;4.40;1.20;;;;;;;11.27;58.43;100162.88;5073846;28;20059;-81
2021/10/23 14:59:31;;;;;;;3.92;1.48;;;;;;;11.55;59.48;100170.78;5075052;28;20052;-81
2021/10/23 15:01:58;;;;;;;3.60;0.90;;;;;;;11.68;58.28;100172.00;5074209;28;20110;-81
2021/10/23 15:04:25;;;;;;;3.85;1.13;;;;;;;11.74;59.38;100175.91;5075153;28;20044;-81
2021/10/23 15:06:51;;;;;;;3.55;1.15;;;;;;;11.61;59.73;100170.97;5074464;28;20063;-83
2021/10/23 15:09:20;;;;;;;1.95;0.90;;;;;;;11.38;61.01;100169.88;5073913;28;20052;-80
2021/10/23 15:11:46;;;;;;;5.18;1.00;;;;;;;11.51;60.91;100183.88;5075174;28;20477;-80
2021/10/23 15:14:17;;;;;;;1.85;1.00;;;;;;;11.32;59.97;100165.94;5074103;28;20048;-81
2021/10/23 15:16:44;;;;;;;3.58;1.63;;;;;;;11.29;62.24;100188.06;5074878;28;20483;-81
2021/10/23 15:19:10;;;;;;;3.65;1.10;;;;;;;11.15;63.38;100186.81;5074135;28;20093;-81
2021/10/23 15:21:37;;;;;;;1.88;0.90;;;;;;;11.14;62.76;100179.66;5074347;28;20044;-81
2021/10/23 15:24:05;;;;;;;7.03;1.27;;;;;;;11.07;63.71;100182.19;5074025;28;20114;-81
2021/10/23 15:26:32;;;;;;;5.25;1.20;;;;;;;11.05;65.33;100184.22;5058625;28;20044;-80
2021/10/23 15:28:59;;;;;;;3.50;1.30;;;;;;;10.94;64.76;100177.22;5073862;28;20044;-81
2021/10/23 15:31:30;;;;;;;5.72;1.13;;;;;;;10.93;65.29;100185.50;5073826;28;20075;-81
2021/10/23 15:33:57;;;;;;;3.47;1.40;;;;;;;10.81;63.97;100171.38;5074289;28;20053;-81
2021/10/23 15:36:23;;;;;;;6.38;2.33;;;;;;;10.70;66.69;100182.50;5074467;28;20052;-80
2021/10/23 15:38:52;;;;;;;6.30;1.20;;;;;;;10.59;64.51;100180.91;5073007;28;20106;-80
2021/10/23 15:44:02;;;;;;;3.70;1.73;;;;;;;10.32;67.83;100171.84;5066887;28;20053;-80
2021/10/23 15:46:35;;;;;;;3.20;1.23;;;;;;;10.17;69.54;100168.84;5071195;28;20127;-80
2021/10/23 15:49:02;;;;;;;4.45;1.30;;;;;;;10.06;71.65;100171.84;5070220;28;20125;-81
2021/10/23 15:51:29;;;;;;;4.32;1.30;;;;;;;9.95;70.40;100170.22;5074140;28;20044;-80
2021/10/23 15:53:56;;;;;;;3.70;1.50;;;;;;;9.84;73.11;100184.88;5074244;28;20044;-80
2021/10/23 15:56:22;;;;;;;3.90;1.60;;;;;;;9.70;74.21;100175.41;5073539;28;20044;-80
2021/10/23 15:58:49;;;;;;;7.25;2.85;;;;;;;9.63;72.58;100173.47;5073815;28;20283;-80
2021/10/23 16:01:16;;;;;;;15.25;6.28;;;;;;;9.54;74.49;100177.94;5073506;28;20442;-80
2021/10/23 16:03:44;;;;;;;4.10;1.65;;;;;;;9.39;76.74;100175.78;5072572;28;20048;-80
2021/10/23 16:06:11;;;;;;;5.97;1.83;;;;;;;9.25;77.61;100178.16;5072717;28;20049;-80
2021/10/23 16:08:37;;;;;;;7.30;1.60;;;;;;;9.13;79.22;100175.63;5073057;28;20516;-80
2021/10/23 16:11:04;;;;;;;4.15;1.50;;;;;;;9.01;79.85;100165.97;5073332;28;20090;-80
2021/10/23 16:13:31;;;;;;;4.65;1.38;;;;;;;8.88;80.91;100179.03;5073691;28;20060;-80
2021/10/23 16:15:57;;;;;;;7.03;1.80;;;;;;;8.61;82.17;100175.25;5073011;28;20048;-80
2021/10/23 16:18:24;;;;;;;1.20;1.08;;;;;;;8.54;82.06;100182.31;5073131;28;20053;-80
2021/10/23 16:20:52;;;;;;;2.22;1.30;;;;;;;8.46;82.28;100185.72;5073093;28;20438;-80
2021/10/23 16:23:19;;;;;;;4.25;1.70;;;;;;;8.31;83.66;100175.31;5073531;28;20044;-80
2021/10/23 16:25:46;;;;;;;3.55;1.40;;;;;;;8.23;84.40;100188.72;5072354;28;20694;-79
2021/10/23 16:28:13;;;;;;;1.88;1.38;;;;;;;8.10;85.27;100197.16;5073332;28;20055;-80
2021/10/23 16:30:39;;;;;;;5.40;1.60;;;;;;;8.10;85.86;100193.56;5074526;28;20044;-80
2021/10/23 16:33:06;;;;;;;5.43;1.85;;;;;;;7.88;87.15;100190.19;5073358;28;20561;-80
2021/10/23 16:35:35;;;;;;;5.80;2.08;;;;;;;7.83;87.84;100178.94;5067778;28;20045;-80
2021/10/23 16:38:03;;;;;;;3.92;1.40;;;;;;;7.75;88.40;100186.88;5057550;28;20048;-80
2021/10/23 16:40:30;;;;;;;2.88;1.73;;;;;;;7.64;88.88;100193.31;5072453;28;20048;-80
2021/10/23 16:43:11;;;;;;;5.13;2.42;;;;;;;7.54;89.40;100200.53;5072415;28;20040;-81
2021/10/23 16:45:38;;;;;;;3.58;1.45;;;;;;;7.44;89.53;100197.84;5071790;28;20475;-80
2021/10/23 16:48:23;;;;;;;7.53;2.22;;;;;;;7.28;90.11;100195.66;5072491;28;20044;-82
2021/10/23 16:54:06;;;;;;;3.80;1.98;;;;;;;7.05;91.49;100201.28;5048473;28;20145;-80
2021/10/23 16:56:40;;;;;;;8.63;2.25;;;;;;;6.97;91.30;100200.25;5063879;28;20325;-80
2021/10/23 17:00:05;;;;;;;;;;;;;;;;;;;;;
2021/10/23 17:03:03;;;;;;;4.07;1.48;;;;;;;6.72;92.89;100205.13;5073116;28;20404;-82
2021/10/23 17:06:07;;;;;;;7.90;1.60;;;;;;;6.55;93.27;100201.19;5072722;28;20135;-80
2021/10/23 17:09:02;;;;;;;18.40;2.13;;;;;;;6.59;93.17;100210.72;5053151;28;20136;-80
2021/10/23 17:11:43;;;;;;;6.28;1.98;;;;;;;6.44;93.48;100221.00;5066450;28;20127;-79
2021/10/23 17:14:39;;;;;;;2.75;1.30;;;;;;;6.47;94.07;100219.91;5072547;28;20059;-80
2021/10/23 17:17:07;;;;;;;5.95;1.50;;;;;;;6.33;94.15;100218.41;5071022;28;20061;-79
2021/10/23 17:19:37;;;;;;;4.63;1.63;;;;;;;6.35;94.04;100217.28;5070713;28;20434;-79
2021/10/23 17:22:34;;;;;;;3.95;2.00;;;;;;;6.26;94.54;100211.81;5072994;28;20040;-80
2021/10/23 17:25:01;;;;;;;4.43;2.20;;;;;;;5.91;94.88;100194.88;5071895;28;20059;-80
2021/10/23 17:27:29;;;;;;;25.08;11.55;;;;;;;5.91;95.39;100223.72;5073852;28;20110;-79
2021/10/23 17:29:56;;;;;;;37.30;17.05;;;;;;;5.87;95.54;100219.56;5073771;28;20102;-80
2021/10/23 17:32:26;;;;;;;27.00;11.90;;;;;;;5.77;95.60;100217.66;5073182;28;20557;-80
2021/10/23 17:34:54;;;;;;;16.55;6.68;;;;;;;5.77;95.51;100233.84;5072467;28;20118;-80
2021/10/23 17:37:21;;;;;;;10.52;4.82;;;;;;;5.73;96.07;100223.44;5071662;28;20050;-80
2021/10/23 17:39:48;;;;;;;9.65;4.60;;;;;;;5.70;96.28;100227.22;5071890;28;20106;-80
2021/10/23 17:42:15;;;;;;;7.00;3.70;;;;;;;5.65;96.02;100230.31;5057500;28;20076;-80
2021/10/23 17:44:44;;;;;;;7.22;2.92;;;;;;;5.57;95.93;100227.41;5052355;28;20494;-80
2021/10/23 17:47:11;;;;;;;5.10;2.30;;;;;;;5.59;95.78;100233.53;5063447;28;20380;-80
2021/10/23 17:49:39;;;;;;;5.10;2.42;;;;;;;5.54;96.23;100227.66;5072730;28;20056;-80
2021/10/23 17:52:07;;;;;;;9.70;2.53;;;;;;;5.55;96.21;100236.59;5072161;28;20099;-80
2021/10/23 17:54:35;;;;;;;7.70;2.50;;;;;;;5.42;96.37;100231.34;5072111;28;20506;-80
2021/10/23 17:57:02;;;;;;;4.63;2.63;;;;;;;5.29;95.74;100215.31;5072714;28;20052;-80
2021/10/23 17:59:29;;;;;;;4.45;2.55;;;;;;;5.36;96.17;100232.72;5065382;28;20131;-80
2021/10/23 18:01:57;;;;;;;8.68;3.03;;;;;;;5.33;97.28;100243.75;5072500;28;20113;-81
2021/10/23 18:04:24;;;;;;;7.10;3.40;;;;;;;5.34;97.55;100240.06;5071893;28;20145;-81
2021/10/23 18:06:51;;;;;;;8.25;3.65;;;;;;;5.27;97.62;100236.16;5071364;28;20088;-80
2021/10/23 18:09:18;;;;;;;7.10;3.40;;;;;;;5.25;97.15;100232.72;5052211;28;20509;-80
2021/10/23 18:11:45;;;;;;;11.20;5.00;;;;;;;5.32;97.07;100247.44;5071349;28;20044;-81
2021/10/23 18:14:14;;;;;;;16.13;6.20;;;;;;;5.23;97.43;100243.63;5072281;28;20052;-81
2021/10/23 18:16:52;;;;;;;9.38;5.30;;;;;;;5.13;98.30;100242.66;5071537;28;20105;-81
2021/10/23 18:19:21;;;;;;;7.88;4.95;;;;;;;5.14;98.32;100245.22;5072141;28;20052;-81
2021/10/23 18:21:48;;;;;;;11.98;6.22;;;;;;;5.04;98.16;100224.53;5071723;28;20056;-81
2021/10/23 18:24:17;;;;;;;11.55;6.55;;;;;;;4.97;97.90;100213.41;5071945;28;20051;-81
2021/10/23 18:26:46;;;;;;;12.13;5.68;;;;;;;4.89;98.48;100221.22;5071490;28;20045;-81
2021/10/23 18:29:13;;;;;;;15.43;6.45;;;;;;;4.89;99.11;100243.66;5072123;28;20049;-81
2021/10/23 18:31:40;;;;;;;16.27;5.80;;;;;;;4.77;98.70;100223.94;5071773;28;20040;-81
2021/10/23 18:34:07;;;;;;;19.00;5.43;;;;;;;4.79;98.57;100231.91;5061200;28;20127;-81
2021/10/23 18:36:35;;;;;;;9.18;4.85;;;;;;;4.91;100.00;100248.94;5051186;28;20566;-81
2021/10/23 18:39:03;;;;;;;10.50;4.50;;;;;;;4.85;99.16;100238.59;5065070;28;20056;-81